Flight Track Log - Related Links

Times and Time Zones

All times are in EDT time to prevent confusion due to time zone crossing. See the RPA3275 flight status page for this flight to view local times or setup timezone preferences in your user account.

Time Position Orientation Groundspeed Altitude Reporting Facility
EDT Latitude Longitude Course Direction KTS MPH feet Rate Location/Type
Fri 08:02:38 AM 42.7631 -73.8089 211° Southwest 133 153 1,500  Level Boston Center
Fri 08:03:20 AM 42.7964 -73.8181 349° North 182 209 3,000 2,796 Climbing Boston Center
Fri 08:04:21 AM 42.8500 -73.8675 326° Northwest 262 302 6,300 3,296 Climbing Boston Center
Fri 08:05:00 AM 42.0698 -75.0247 210° Southwest  Level FlightAware Approximate
Fri 08:05:42 AM 42.8294 -73.9972 258° West 258 297 10,800  Level Boston Center
Fri 08:06:00 AM 41.8154 -75.2476 211° Southwest  Level FlightAware Approximate
Fri 08:06:42 AM 42.7989 -74.1039 249° West 279 321 14,300  Level Boston Center
Fri 08:07:00 AM 41.7446 -75.3039 211° Southwest  Level FlightAware Approximate
Fri 08:07:42 AM 42.7722 -74.2050 250° West 317 365 17,400  Level Boston Center
Fri 08:08:00 AM 41.6738 -75.3601 211° Southwest  Level FlightAware Approximate
Fri 08:08:42 AM 42.7286 -74.3253 244° Southwest 322 371 19,000  Level Boston Center
Fri 08:09:42 AM 42.6564 -74.4078 220° Southwest 356 410 19,000  Level Boston Center
Fri 08:10:42 AM 42.5692 -74.5122 221° Southwest 387 445 19,000  Level Boston Center
Fri 08:11:42 AM 42.4967 -74.5942 220° Southwest 392 451 19,000  Level Boston Center
Fri 08:12:42 AM 42.4072 -74.6981 221° Southwest 381 438 19,000  Level Boston Center
Fri 08:13:42 AM 42.3367 -74.7769 220° Southwest 381 438 19,000  Level Boston Center
Fri 08:14:42 AM 42.2469 -74.8831 221° Southwest 381 438 19,000  Level Boston Center
Fri 08:16:39 AM 42.0797 -75.0431 215° Southwest 372 428 19,000  Level New York Center
Fri 08:17:40 AM 41.9981 -75.1106 212° Southwest 379 436 19,000  Level New York Center
Fri 08:18:38 AM 41.8994 -75.1903 211° Southwest 384 442 19,000  Level New York Center
Fri 08:19:39 AM 41.8092 -75.2622 211° Southwest 384 442 19,000 -488 Level New York Center
Fri 08:20:41 AM 41.7211 -75.3342 211° Southwest 384 442 18,000 -1,350 Descending New York Center
Fri 08:21:39 AM 41.6481 -75.3931 211° Southwest 364 419 16,300 -1,780 Descending New York Center
Fri 08:22:39 AM 41.5664 -75.4594 211° Southwest 350 403 14,500 -1,900 Descending New York Center
Fri 08:23:39 AM 41.4783 -75.5281 210° Southwest 345 397 12,500 -1,230 Descending New York Center
Fri 08:24:41 AM 41.4008 -75.5889 210° Southwest 338 389 12,000 -252 Descending New York Center
Fri 08:25:38 AM 41.3178 -75.6356 203° Southwest 338 389 12,000  Level New York Center
Fri 08:26:39 AM 41.2372 -75.6158 170° South 315 362 12,000  Level New York Center
Fri 08:27:40 AM 41.1506 -75.5958 170° South 315 362 12,000  Level New York Center
Fri 08:28:41 AM 41.0536 -75.5725 170° South 328 377 12,000  Level New York Center
Fri 08:29:39 AM 40.9628 -75.5522 170° South 328 377 12,000  Level New York Center
Fri 08:30:38 AM 40.8719 -75.5322 171° South 328 377 12,000  Level New York Center
Fri 08:31:39 AM 40.7914 -75.5128 170° South 328 377 12,000  Level New York Center
Fri 08:32:41 AM 40.6903 -75.4894 170° South 335 386 12,000 -100 Level New York Center
Fri 08:33:39 AM 40.5994 -75.4667 169° South 335 386 11,800 -655 Descending New York Center
Fri 08:34:40 AM 40.5106 -75.4469 170° South 329 379 10,700 -885 Descending New York Center
Fri 08:35:41 AM 40.4367 -75.4231 166° South 321 369 10,000 -807 Descending New York Center
Fri 08:36:39 AM 40.3506 -75.3844 161° South 302 348 9,100 -915 Descending New York Center
Fri 08:37:39 AM 40.2739 -75.3711 172° South 295 339 8,200 -545 Descending New York Center
Fri 08:38:40 AM 40.2181 -75.4136 210° Southwest 255 293 8,000 -545 Descending New York Center
Fri 08:39:40 AM 40.1819 -75.4847 236° Southwest 225 259 7,100 -1,041 Descending New York Center
Fri 08:40:41 AM 40.1481 -75.5503 236° Southwest 225 259 5,900 -545 Descending New York Center
Fri 08:41:41 AM 40.0936 -75.5572 186° South 191 220 6,000 51 Climbing New York Center
Fri 08:42:39 AM 40.0369 -75.5617 183° South 205 236 6,000  Level New York Center
Fri 08:43:39 AM 39.9861 -75.5825 197° South 210 242 6,000  Level New York Center
Fri 08:44:40 AM 39.9303 -75.6272 212° Southwest 210 242 6,000 -49 Level New York Center
Fri 08:45:41 AM 39.9028 -75.6850 238° Southwest 210 242 5,900 -555 Descending New York Center
Fri 08:46:39 AM 39.8592 -75.7306 219° Southwest 201 231 4,900 -712 Descending New York Center
Fri 08:47:39 AM 39.8153 -75.7331 183° South 180 207 4,500 -450 Descending New York Center
Fri 08:48:39 AM 39.7925 -75.6772 118° Southeast 151 174 4,000 -204 Descending New York Center
Fri 08:50:06 AM 39.8000 -75.5833 84° East 174 200 4,000 -41 Level Philadelphia TRACON
Fri 08:51:06 AM 39.8167 -75.5333 67° East 175 201 3,900 -500 Descending Philadelphia TRACON
Fri 08:52:06 AM 39.8167 -75.4667 90° East 165 190 3,000 -850 Descending Philadelphia TRACON
Fri 08:53:06 AM 39.8333 -75.4167 67° East 160 184 2,200 -800 Descending Philadelphia TRACON

Login

Don't have an account? Register now (free) for customized features, flight alerts, and more!